Emmett, MI (48022)

3:39 PM EDT on August 29, 2015 (GMT -0400)
capac,mi | | Change Station
CLOSE
Current Station
Personal Weather Station
Location: Capac, MI
Elevation: 833 ft
Nearby Weather Stations

Elev 833 ft 43.03 °N, 82.93 °W | Updated 10 seconds ago

Overcast
Overcast
70.2 °F
Feels Like 70.2 °F
N
4.0
Wind Variable Wind from SSE
Gusts 5.0 mph

Today
High -- | Low -- °F
--% Chance of Precip.
Yesterday
High -- | Low -- °F
Precip. -- in
6:52 AM 8:11 PM
Full, 100% visible
Pressure 30.11 in
Visibility 10.0 miles
Clouds Mostly Cloudy 8000 ft
Overcast 8500 ft
Dew Point 66 °F
Humidity 86%
Rainfall 0.05 in
Snow Depth Not available.
UV 2 out of 12
Pollen 8.60 out of 12
Air Quality Not available.
Flu Activity Not available.
METAR KPHN 291935Z AUTO 00000KT 10SM BKN080 OVC085 22/18 A3011 RMK AO2
Pressure 30.11 in
Visibility 10.0 miles
Clouds Mostly Cloudy 8000 ft
Overcast 8500 ft
Dew Point 66 °F
Humidity 86%
Rainfall 0.05 in
Snow Depth Not available.
UV 2 out of 12
Pollen 8.60 out of 12
Air Quality Not available.
Flu Activity Not available.
METAR KPHN 291935Z AUTO 00000KT 10SM BKN080 OVC085 22/18 A3011 RMK AO2

10-Day Weather Forecast

×

Almanac

Astronomy

Aug. 29, 2015 Rise Set
Actual Time
Civil Twilight
Nautical Twilight
Astronomical Twilight
Moon
Length of Visible Light
Length of Day
Tomorrow will be .
, % of the Moon is Illuminated

Today's Extremes

State Highs State Lows

Community

WunderPhotos

Upload Photos

1,850,782 photos uploaded!

WunderBlogs® & News

Nearby

Air Quality

  Air Quality AQ Index Pollutant
Not available.

Snow Depth

Station Depth Elevation

Earthquake Activity

City Distance Mag. Time & Date
Minimum magnitude displayed is 2.5.

Coastal Water Temperatures

Place Temperature

Stations

Nearby Weather Stations

Station Location Temp. Windchill Dew Point Humidity Wind Precip. Elev Updated Type